sensor_id;sensor_type;location;lat;lon;timestamp;temperature;humidity
70695;DHT22;58269;52.246;21.104;2022-09-02T00:01:01;13.87;56.22
70695;DHT22;58269;52.246;21.104;2022-09-02T00:03:03;13.84;56.17
70695;DHT22;58269;52.246;21.104;2022-09-02T00:05:04;13.83;56.18
70695;DHT22;58269;52.246;21.104;2022-09-02T00:07:06;13.80;56.22
70695;DHT22;58269;52.246;21.104;2022-09-02T00:09:09;13.77;56.41
70695;DHT22;58269;52.246;21.104;2022-09-02T00:11:15;13.74;56.30
70695;DHT22;58269;52.246;21.104;2022-09-02T00:13:17;13.73;56.36
70695;DHT22;58269;52.246;21.104;2022-09-02T00:15:19;13.70;56.40
70695;DHT22;58269;52.246;21.104;2022-09-02T00:17:20;13.69;56.46
70695;DHT22;58269;52.246;21.104;2022-09-02T00:19:23;13.67;56.58
70695;DHT22;58269;52.246;21.104;2022-09-02T00:21:25;13.67;56.63
70695;DHT22;58269;52.246;21.104;2022-09-02T00:23:26;13.63;56.70
70695;DHT22;58269;52.246;21.104;2022-09-02T00:25:27;13.64;56.73
70695;DHT22;58269;52.246;21.104;2022-09-02T00:27:28;13.60;56.84
70695;DHT22;58269;52.246;21.104;2022-09-02T00:29:30;13.56;56.82
70695;DHT22;58269;52.246;21.104;2022-09-02T00:31:31;13.51;56.83
70695;DHT22;58269;52.246;21.104;2022-09-02T00:33:33;13.47;56.78
70695;DHT22;58269;52.246;21.104;2022-09-02T00:35:35;13.50;56.96
70695;DHT22;58269;52.246;21.104;2022-09-02T00:37:36;13.47;56.98
70695;DHT22;58269;52.246;21.104;2022-09-02T00:39:38;13.43;57.03
70695;DHT22;58269;52.246;21.104;2022-09-02T00:41:41;13.43;57.09
70695;DHT22;58269;52.246;21.104;2022-09-02T00:44:00;13.42;57.50
70695;DHT22;58269;52.246;21.104;2022-09-02T00:45:52;13.39;57.29
70695;DHT22;58269;52.246;21.104;2022-09-02T00:47:55;13.35;57.23
70695;DHT22;58269;52.246;21.104;2022-09-02T00:49:56;13.32;57.27
70695;DHT22;58269;52.246;21.104;2022-09-02T00:53:02;13.30;57.40
70695;DHT22;58269;52.246;21.104;2022-09-02T00:54:13;13.25;57.47
70695;DHT22;58269;52.246;21.104;2022-09-02T00:56:28;13.21;57.48
70695;DHT22;58269;52.246;21.104;2022-09-02T00:58:27;13.18;57.48
70695;DHT22;58269;52.246;21.104;2022-09-02T01:00:33;13.14;57.74
70695;DHT22;58269;52.246;21.104;2022-09-02T01:02:34;13.12;57.72
70695;DHT22;58269;52.246;21.104;2022-09-02T01:04:37;13.09;57.70
70695;DHT22;58269;52.246;21.104;2022-09-02T01:06:38;13.08;57.77
70695;DHT22;58269;52.246;21.104;2022-09-02T01:08:43;13.07;57.88
70695;DHT22;58269;52.246;21.104;2022-09-02T01:10:45;13.04;57.83
70695;DHT22;58269;52.246;21.104;2022-09-02T01:12:48;13.01;57.87
70695;DHT22;58269;52.246;21.104;2022-09-02T01:14:49;12.99;58.20
70695;DHT22;58269;52.246;21.104;2022-09-02T01:16:52;12.95;57.99
70695;DHT22;58269;52.246;21.104;2022-09-02T01:18:55;12.92;57.99
70695;DHT22;58269;52.246;21.104;2022-09-02T01:20:59;12.92;58.11
70695;DHT22;58269;52.246;21.104;2022-09-02T01:23:00;12.92;58.21
70695;DHT22;58269;52.246;21.104;2022-09-02T01:25:13;12.88;58.13
70695;DHT22;58269;52.246;21.104;2022-09-02T01:27:15;12.89;58.16
70695;DHT22;58269;52.246;21.104;2022-09-02T01:29:17;12.84;58.17
70695;DHT22;58269;52.246;21.104;2022-09-02T01:31:18;12.85;58.15
70695;DHT22;58269;52.246;21.104;2022-09-02T01:33:21;12.82;58.22
70695;DHT22;58269;52.246;21.104;2022-09-02T01:35:22;12.81;58.27
70695;DHT22;58269;52.246;21.104;2022-09-02T01:37:24;12.79;58.29
70695;DHT22;58269;52.246;21.104;2022-09-02T01:39:25;12.77;58.34
70695;DHT22;58269;52.246;21.104;2022-09-02T01:41:26;12.74;58.39
70695;DHT22;58269;52.246;21.104;2022-09-02T01:43:27;12.72;58.41
70695;DHT22;58269;52.246;21.104;2022-09-02T01:45:29;12.70;58.42
70695;DHT22;58269;52.246;21.104;2022-09-02T01:47:30;12.70;58.54
70695;DHT22;58269;52.246;21.104;2022-09-02T01:49:32;12.66;58.60
70695;DHT22;58269;52.246;21.104;2022-09-02T01:51:33;12.66;58.57
70695;DHT22;58269;52.246;21.104;2022-09-02T01:53:34;12.63;58.59
70695;DHT22;58269;52.246;21.104;2022-09-02T01:55:36;12.61;58.68
70695;DHT22;58269;52.246;21.104;2022-09-02T01:57:38;12.58;58.71
70695;DHT22;58269;52.246;21.104;2022-09-02T01:59:39;12.58;58.73
70695;DHT22;58269;52.246;21.104;2022-09-02T02:01:41;12.56;58.73
70695;DHT22;58269;52.246;21.104;2022-09-02T02:03:42;12.54;58.82
70695;DHT22;58269;52.246;21.104;2022-09-02T02:05:43;12.53;58.86
70695;DHT22;58269;52.246;21.104;2022-09-02T02:07:46;12.46;58.85
70695;DHT22;58269;52.246;21.104;2022-09-02T02:09:48;12.46;58.89
70695;DHT22;58269;52.246;21.104;2022-09-02T02:11:50;12.44;58.92
70695;DHT22;58269;52.246;21.104;2022-09-02T02:13:51;12.40;58.97
70695;DHT22;58269;52.246;21.104;2022-09-02T02:15:54;12.39;59.00
70695;DHT22;58269;52.246;21.104;2022-09-02T02:17:55;12.37;59.04
70695;DHT22;58269;52.246;21.104;2022-09-02T02:19:56;12.36;59.07
70695;DHT22;58269;52.246;21.104;2022-09-02T02:21:57;12.35;59.06
70695;DHT22;58269;52.246;21.104;2022-09-02T02:23:58;12.35;59.12
70695;DHT22;58269;52.246;21.104;2022-09-02T02:26:02;12.32;59.13
70695;DHT22;58269;52.246;21.104;2022-09-02T02:28:03;12.32;59.15
70695;DHT22;58269;52.246;21.104;2022-09-02T02:30:05;12.29;59.15
70695;DHT22;58269;52.246;21.104;2022-09-02T02:32:07;12.26;59.21
70695;DHT22;58269;52.246;21.104;2022-09-02T02:34:09;12.26;59.27
70695;DHT22;58269;52.246;21.104;2022-09-02T02:36:10;12.17;59.32
70695;DHT22;58269;52.246;21.104;2022-09-02T02:38:11;12.19;59.34
70695;DHT22;58269;52.246;21.104;2022-09-02T02:40:12;12.17;59.41
70695;DHT22;58269;52.246;21.104;2022-09-02T02:42:13;12.15;59.54
70695;DHT22;58269;52.246;21.104;2022-09-02T02:44:15;12.13;59.63
70695;DHT22;58269;52.246;21.104;2022-09-02T02:46:16;12.10;59.58
70695;DHT22;58269;52.246;21.104;2022-09-02T02:48:20;12.09;59.67
70695;DHT22;58269;52.246;21.104;2022-09-02T02:50:22;12.05;59.65
70695;DHT22;58269;52.246;21.104;2022-09-02T02:52:23;12.05;59.81
70695;DHT22;58269;52.246;21.104;2022-09-02T02:54:25;12.02;59.83
70695;DHT22;58269;52.246;21.104;2022-09-02T02:56:27;12.02;59.79
70695;DHT22;58269;52.246;21.104;2022-09-02T02:58:29;11.97;59.90
70695;DHT22;58269;52.246;21.104;2022-09-02T03:00:30;11.97;59.97
70695;DHT22;58269;52.246;21.104;2022-09-02T03:02:32;11.97;59.97
70695;DHT22;58269;52.246;21.104;2022-09-02T03:04:35;11.96;59.98
70695;DHT22;58269;52.246;21.104;2022-09-02T03:06:38;11.95;60.01
70695;DHT22;58269;52.246;21.104;2022-09-02T03:08:39;11.93;60.04
70695;DHT22;58269;52.246;21.104;2022-09-02T03:10:41;11.95;60.08
70695;DHT22;58269;52.246;21.104;2022-09-02T03:12:43;11.93;60.12
70695;DHT22;58269;52.246;21.104;2022-09-02T03:14:48;11.92;60.21
70695;DHT22;58269;52.246;21.104;2022-09-02T03:16:50;11.90;60.25
70695;DHT22;58269;52.246;21.104;2022-09-02T03:18:52;11.90;60.27
70695;DHT22;58269;52.246;21.104;2022-09-02T03:20:53;11.88;60.27
70695;DHT22;58269;52.246;21.104;2022-09-02T03:22:56;11.88;60.29
70695;DHT22;58269;52.246;21.104;2022-09-02T03:24:57;11.85;60.34
70695;DHT22;58269;52.246;21.104;2022-09-02T03:26:58;11.85;60.34
70695;DHT22;58269;52.246;21.104;2022-09-02T03:28:59;11.84;60.39
70695;DHT22;58269;52.246;21.104;2022-09-02T03:31:00;11.81;60.42
70695;DHT22;58269;52.246;21.104;2022-09-02T03:33:02;11.79;60.41
70695;DHT22;58269;52.246;21.104;2022-09-02T03:35:07;11.76;60.51
70695;DHT22;58269;52.246;21.104;2022-09-02T03:37:08;11.75;60.51
70695;DHT22;58269;52.246;21.104;2022-09-02T03:39:12;11.72;60.58
70695;DHT22;58269;52.246;21.104;2022-09-02T03:41:15;11.71;60.69
70695;DHT22;58269;52.246;21.104;2022-09-02T03:43:16;11.69;60.71
70695;DHT22;58269;52.246;21.104;2022-09-02T03:45:17;11.69;60.69
70695;DHT22;58269;52.246;21.104;2022-09-02T03:47:18;11.65;60.73
70695;DHT22;58269;52.246;21.104;2022-09-02T03:49:21;11.64;60.73
70695;DHT22;58269;52.246;21.104;2022-09-02T03:51:22;11.62;60.75
70695;DHT22;58269;52.246;21.104;2022-09-02T03:53:24;11.62;60.85
70695;DHT22;58269;52.246;21.104;2022-09-02T03:55:28;11.61;60.82
70695;DHT22;58269;52.246;21.104;2022-09-02T03:57:30;11.59;60.84
70695;DHT22;58269;52.246;21.104;2022-09-02T03:59:31;11.59;60.86
70695;DHT22;58269;52.246;21.104;2022-09-02T04:01:32;11.58;60.89
70695;DHT22;58269;52.246;21.104;2022-09-02T04:03:34;11.55;60.99
70695;DHT22;58269;52.246;21.104;2022-09-02T04:05:36;11.51;61.03
70695;DHT22;58269;52.246;21.104;2022-09-02T04:07:38;11.53;61.11
70695;DHT22;58269;52.246;21.104;2022-09-02T04:09:39;11.53;61.05
70695;DHT22;58269;52.246;21.104;2022-09-02T04:11:41;11.50;61.11
70695;DHT22;58269;52.246;21.104;2022-09-02T04:13:44;11.51;61.17
70695;DHT22;58269;52.246;21.104;2022-09-02T04:15:47;11.45;61.23
70695;DHT22;58269;52.246;21.104;2022-09-02T04:17:49;11.45;61.24
70695;DHT22;58269;52.246;21.104;2022-09-02T04:19:53;11.41;61.27
70695;DHT22;58269;52.246;21.104;2022-09-02T04:21:54;11.41;61.31
70695;DHT22;58269;52.246;21.104;2022-09-02T04:23:55;11.41;61.31
70695;DHT22;58269;52.246;21.104;2022-09-02T04:25:58;11.40;61.38
70695;DHT22;58269;52.246;21.104;2022-09-02T04:27:59;11.37;61.43
70695;DHT22;58269;52.246;21.104;2022-09-02T04:30:01;11.37;61.42
70695;DHT22;58269;52.246;21.104;2022-09-02T04:32:03;11.35;61.51
70695;DHT22;58269;52.246;21.104;2022-09-02T04:34:04;11.35;61.51
70695;DHT22;58269;52.246;21.104;2022-09-02T04:36:09;11.34;61.55
70695;DHT22;58269;52.246;21.104;2022-09-02T04:38:11;11.33;61.54
70695;DHT22;58269;52.246;21.104;2022-09-02T04:40:13;11.34;61.58
70695;DHT22;58269;52.246;21.104;2022-09-02T04:42:15;11.34;61.68
70695;DHT22;58269;52.246;21.104;2022-09-02T04:44:16;11.33;61.72
70695;DHT22;58269;52.246;21.104;2022-09-02T04:46:19;11.31;61.66
70695;DHT22;58269;52.246;21.104;2022-09-02T04:48:20;11.28;61.77
70695;DHT22;58269;52.246;21.104;2022-09-02T04:50:23;11.30;61.79
70695;DHT22;58269;52.246;21.104;2022-09-02T04:52:32;11.28;61.75
70695;DHT22;58269;52.246;21.104;2022-09-02T04:54:33;11.28;61.81
70695;DHT22;58269;52.246;21.104;2022-09-02T04:56:35;11.25;61.78
70695;DHT22;58269;52.246;21.104;2022-09-02T04:58:38;11.27;61.90
70695;DHT22;58269;52.246;21.104;2022-09-02T05:00:39;11.25;61.90
70695;DHT22;58269;52.246;21.104;2022-09-02T05:02:44;11.27;61.91
70695;DHT22;58269;52.246;21.104;2022-09-02T05:04:45;11.27;62.01
70695;DHT22;58269;52.246;21.104;2022-09-02T05:06:51;11.30;62.01
70695;DHT22;58269;52.246;21.104;2022-09-02T05:08:54;11.27;61.97
70695;DHT22;58269;52.246;21.104;2022-09-02T05:10:58;11.25;62.05
70695;DHT22;58269;52.246;21.104;2022-09-02T05:13:00;11.28;62.06
70695;DHT22;58269;52.246;21.104;2022-09-02T05:15:02;11.27;62.05
70695;DHT22;58269;52.246;21.104;2022-09-02T05:17:04;11.28;62.10
70695;DHT22;58269;52.246;21.104;2022-09-02T05:19:06;11.27;62.14
70695;DHT22;58269;52.246;21.104;2022-09-02T05:21:11;11.33;62.14
70695;DHT22;58269;52.246;21.104;2022-09-02T05:23:14;11.31;62.17
70695;DHT22;58269;52.246;21.104;2022-09-02T05:25:16;11.30;62.20
70695;DHT22;58269;52.246;21.104;2022-09-02T05:27:18;11.35;62.27
70695;DHT22;58269;52.246;21.104;2022-09-02T05:29:20;11.35;62.31
70695;DHT22;58269;52.246;21.104;2022-09-02T05:31:23;11.38;62.34
70695;DHT22;58269;52.246;21.104;2022-09-02T05:33:24;11.40;62.36
70695;DHT22;58269;52.246;21.104;2022-09-02T05:35:27;11.43;62.37
70695;DHT22;58269;52.246;21.104;2022-09-02T05:37:29;11.43;62.47
70695;DHT22;58269;52.246;21.104;2022-09-02T05:39:31;11.50;63.14
70695;DHT22;58269;52.246;21.104;2022-09-02T05:41:32;12.61;70.83
70695;DHT22;58269;52.246;21.104;2022-09-02T05:43:35;14.08;75.10
70695;DHT22;58269;52.246;21.104;2022-09-02T05:45:37;15.15;75.00
70695;DHT22;58269;52.246;21.104;2022-09-02T05:47:39;15.85;70.32
70695;DHT22;58269;52.246;21.104;2022-09-02T05:49:40;16.34;70.86
70695;DHT22;58269;52.246;21.104;2022-09-02T05:51:51;16.71;68.35
70695;DHT22;58269;52.246;21.104;2022-09-02T05:53:57;16.99;65.09
70695;DHT22;58269;52.246;21.104;2022-09-02T05:55:55;17.29;64.22
70695;DHT22;58269;52.246;21.104;2022-09-02T05:57:57;17.56;61.72
70695;DHT22;58269;52.246;21.104;2022-09-02T05:59:58;17.81;60.89
70695;DHT22;58269;52.246;21.104;2022-09-02T06:02:01;18.03;58.30
70695;DHT22;58269;52.246;21.104;2022-09-02T06:04:04;17.60;53.93
70695;DHT22;58269;52.246;21.104;2022-09-02T06:06:07;16.98;52.20
70695;DHT22;58269;52.246;21.104;2022-09-02T06:08:10;16.40;51.48
70695;DHT22;58269;52.246;21.104;2022-09-02T06:10:11;15.99;51.20
70695;DHT22;58269;52.246;21.104;2022-09-02T06:12:13;15.64;51.13
70695;DHT22;58269;52.246;21.104;2022-09-02T06:14:18;15.35;51.66
70695;DHT22;58269;52.246;21.104;2022-09-02T06:16:21;15.09;51.52
70695;DHT22;58269;52.246;21.104;2022-09-02T06:18:23;14.92;51.98
70695;DHT22;58269;52.246;21.104;2022-09-02T06:20:25;14.71;52.23
70695;DHT22;58269;52.246;21.104;2022-09-02T06:22:28;14.59;52.80
70695;DHT22;58269;52.246;21.104;2022-09-02T06:24:30;14.45;53.22
70695;DHT22;58269;52.246;21.104;2022-09-02T06:26:32;14.31;53.42
70695;DHT22;58269;52.246;21.104;2022-09-02T06:28:35;14.21;53.73
70695;DHT22;58269;52.246;21.104;2022-09-02T06:30:38;14.14;54.24
70695;DHT22;58269;52.246;21.104;2022-09-02T06:32:40;14.04;54.66
70695;DHT22;58269;52.246;21.104;2022-09-02T06:34:43;13.98;54.86
70695;DHT22;58269;52.246;21.104;2022-09-02T06:36:45;13.93;54.96
70695;DHT22;58269;52.246;21.104;2022-09-02T06:38:49;13.90;55.36
70695;DHT22;58269;52.246;21.104;2022-09-02T06:40:52;13.83;55.56
70695;DHT22;58269;52.246;21.104;2022-09-02T06:42:59;13.81;55.98
70695;DHT22;58269;52.246;21.104;2022-09-02T06:45:06;13.83;56.09
70695;DHT22;58269;52.246;21.104;2022-09-02T06:47:08;13.80;56.42
70695;DHT22;58269;52.246;21.104;2022-09-02T06:49:09;13.81;56.58
70695;DHT22;58269;52.246;21.104;2022-09-02T06:51:20;13.83;57.06
70695;DHT22;58269;52.246;21.104;2022-09-02T06:53:22;13.81;57.20
70695;DHT22;58269;52.246;21.104;2022-09-02T06:55:24;13.81;57.36
70695;DHT22;58269;52.246;21.104;2022-09-02T06:57:25;13.84;57.45
70695;DHT22;58269;52.246;21.104;2022-09-02T06:59:26;13.86;57.63
70695;DHT22;58269;52.246;21.104;2022-09-02T07:01:30;13.89;57.72
70695;DHT22;58269;52.246;21.104;2022-09-02T07:03:33;13.91;57.87
70695;DHT22;58269;52.246;21.104;2022-09-02T07:06:05;13.96;57.80
70695;DHT22;58269;52.246;21.104;2022-09-02T07:08:08;13.98;57.85
70695;DHT22;58269;52.246;21.104;2022-09-02T07:10:11;14.01;58.08
70695;DHT22;58269;52.246;21.104;2022-09-02T07:12:13;14.10;58.37
70695;DHT22;58269;52.246;21.104;2022-09-02T07:14:18;14.11;58.29
70695;DHT22;58269;52.246;21.104;2022-09-02T07:16:21;14.21;58.40
70695;DHT22;58269;52.246;21.104;2022-09-02T07:18:22;14.22;58.86
70695;DHT22;58269;52.246;21.104;2022-09-02T07:20:25;14.31;58.59
70695;DHT22;58269;52.246;21.104;2022-09-02T07:22:28;14.36;58.66
70695;DHT22;58269;52.246;21.104;2022-09-02T07:24:29;14.42;58.60
70695;DHT22;58269;52.246;21.104;2022-09-02T07:26:30;14.49;58.70
70695;DHT22;58269;52.246;21.104;2022-09-02T07:28:32;14.56;58.82
70695;DHT22;58269;52.246;21.104;2022-09-02T07:30:34;14.66;58.72
70695;DHT22;58269;52.246;21.104;2022-09-02T07:32:37;14.72;58.83
70695;DHT22;58269;52.246;21.104;2022-09-02T07:34:39;14.79;58.82
70695;DHT22;58269;52.246;21.104;2022-09-02T07:36:40;14.86;58.88
70695;DHT22;58269;52.246;21.104;2022-09-02T07:38:42;14.94;58.74
70695;DHT22;58269;52.246;21.104;2022-09-02T07:40:45;14.97;58.68
70695;DHT22;58269;52.246;21.104;2022-09-02T07:42:49;15.07;58.70
70695;DHT22;58269;52.246;21.104;2022-09-02T07:44:51;15.10;58.72
70695;DHT22;58269;52.246;21.104;2022-09-02T07:46:53;15.17;58.65
70695;DHT22;58269;52.246;21.104;2022-09-02T07:48:54;15.25;58.70
70695;DHT22;58269;52.246;21.104;2022-09-02T07:50:55;15.29;58.58
70695;DHT22;58269;52.246;21.104;2022-09-02T07:52:57;15.38;58.46
70695;DHT22;58269;52.246;21.104;2022-09-02T07:54:59;15.41;58.40
70695;DHT22;58269;52.246;21.104;2022-09-02T07:57:02;15.48;58.41
70695;DHT22;58269;52.246;21.104;2022-09-02T07:59:03;15.54;58.44
70695;DHT22;58269;52.246;21.104;2022-09-02T08:01:04;15.62;58.37
70695;DHT22;58269;52.246;21.104;2022-09-02T08:03:06;15.66;58.40
70695;DHT22;58269;52.246;21.104;2022-09-02T08:05:10;15.71;58.28
70695;DHT22;58269;52.246;21.104;2022-09-02T08:07:12;15.78;58.22
70695;DHT22;58269;52.246;21.104;2022-09-02T08:09:13;15.82;58.12
70695;DHT22;58269;52.246;21.104;2022-09-02T08:11:14;15.88;57.92
70695;DHT22;58269;52.246;21.104;2022-09-02T08:13:16;15.95;57.80
70695;DHT22;58269;52.246;21.104;2022-09-02T08:15:17;15.99;57.71
70695;DHT22;58269;52.246;21.104;2022-09-02T08:17:19;16.03;57.36
70695;DHT22;58269;52.246;21.104;2022-09-02T08:19:23;16.06;57.35
70695;DHT22;58269;52.246;21.104;2022-09-02T08:21:23;16.16;57.63
70695;DHT22;58269;52.246;21.104;2022-09-02T08:23:26;16.33;57.28
70695;DHT22;58269;52.246;21.104;2022-09-02T08:25:27;16.44;57.19
70695;DHT22;58269;52.246;21.104;2022-09-02T08:27:28;16.53;57.06
70695;DHT22;58269;52.246;21.104;2022-09-02T08:29:29;16.58;56.92
70695;DHT22;58269;52.246;21.104;2022-09-02T08:31:31;16.63;56.73
70695;DHT22;58269;52.246;21.104;2022-09-02T08:33:33;16.67;56.71
70695;DHT22;58269;52.246;21.104;2022-09-02T08:35:34;16.72;56.60
70695;DHT22;58269;52.246;21.104;2022-09-02T08:37:36;16.78;56.63
70695;DHT22;58269;52.246;21.104;2022-09-02T08:39:37;16.83;56.40
70695;DHT22;58269;52.246;21.104;2022-09-02T08:42:07;16.85;56.24
70695;DHT22;58269;52.246;21.104;2022-09-02T08:44:10;16.90;55.92
70695;DHT22;58269;52.246;21.104;2022-09-02T08:46:14;16.98;55.97
70695;DHT22;58269;52.246;21.104;2022-09-02T08:50:38;17.14;55.58
70695;DHT22;58269;52.246;21.104;2022-09-02T08:52:43;17.16;55.43
70695;DHT22;58269;52.246;21.104;2022-09-02T08:54:52;17.19;55.57
70695;DHT22;58269;52.246;21.104;2022-09-02T08:56:56;17.23;55.30
70695;DHT22;58269;52.246;21.104;2022-09-02T08:58:57;17.28;55.10
70695;DHT22;58269;52.246;21.104;2022-09-02T09:01:21;17.26;54.97
70695;DHT22;58269;52.246;21.104;2022-09-02T09:03:29;17.29;54.90
70695;DHT22;58269;52.246;21.104;2022-09-02T09:08:10;17.35;54.52
70695;DHT22;58269;52.246;21.104;2022-09-02T09:10:27;17.39;54.33
70695;DHT22;58269;52.246;21.104;2022-09-02T09:12:48;17.43;54.13
70695;DHT22;58269;52.246;21.104;2022-09-02T09:14:50;17.50;53.96
70695;DHT22;58269;52.246;21.104;2022-09-02T09:16:57;17.59;53.90
70695;DHT22;58269;52.246;21.104;2022-09-02T09:19:12;17.63;53.88
70695;DHT22;58269;52.246;21.104;2022-09-02T09:21:14;17.65;53.77
70695;DHT22;58269;52.246;21.104;2022-09-02T09:23:30;17.72;53.78
70695;DHT22;58269;52.246;21.104;2022-09-02T09:25:33;17.77;53.71
70695;DHT22;58269;52.246;21.104;2022-09-02T09:27:34;17.80;53.53
70695;DHT22;58269;52.246;21.104;2022-09-02T09:29:35;17.84;53.23
70695;DHT22;58269;52.246;21.104;2022-09-02T09:31:36;17.90;53.07
70695;DHT22;58269;52.246;21.104;2022-09-02T09:33:38;17.93;52.99
70695;DHT22;58269;52.246;21.104;2022-09-02T09:35:51;17.96;52.86
70695;DHT22;58269;52.246;21.104;2022-09-02T09:37:53;18.03;52.84
70695;DHT22;58269;52.246;21.104;2022-09-02T09:39:55;18.05;52.84
70695;DHT22;58269;52.246;21.104;2022-09-02T09:41:57;18.18;52.90
70695;DHT22;58269;52.246;21.104;2022-09-02T09:43:59;18.35;52.67
70695;DHT22;58269;52.246;21.104;2022-09-02T09:46:00;18.42;52.60
70695;DHT22;58269;52.246;21.104;2022-09-02T09:48:24;18.49;52.54
70695;DHT22;58269;52.246;21.104;2022-09-02T09:50:30;18.63;52.29
70695;DHT22;58269;52.246;21.104;2022-09-02T09:52:31;18.69;52.07
70695;DHT22;58269;52.246;21.104;2022-09-02T09:54:32;18.76;52.03
70695;DHT22;58269;52.246;21.104;2022-09-02T09:56:34;18.80;51.89
70695;DHT22;58269;52.246;21.104;2022-09-02T10:00:44;18.90;51.69
70695;DHT22;58269;52.246;21.104;2022-09-02T10:02:52;18.97;51.58
70695;DHT22;58269;52.246;21.104;2022-09-02T10:05:08;19.02;51.36
70695;DHT22;58269;52.246;21.104;2022-09-02T10:06:58;19.03;51.22
70695;DHT22;58269;52.246;21.104;2022-09-02T10:11:22;19.06;50.88
70695;DHT22;58269;52.246;21.104;2022-09-02T10:13:29;19.07;50.88
70695;DHT22;58269;52.246;21.104;2022-09-02T10:26:47;19.48;49.77
70695;DHT22;58269;52.246;21.104;2022-09-02T10:32:05;19.55;48.96
70695;DHT22;58269;52.246;21.104;2022-09-02T10:35:50;19.68;48.71
70695;DHT22;58269;52.246;21.104;2022-09-02T10:40:16;19.79;48.69
70695;DHT22;58269;52.246;21.104;2022-09-02T10:42:25;19.89;48.56
70695;DHT22;58269;52.246;21.104;2022-09-02T10:44:29;19.98;48.57
70695;DHT22;58269;52.246;21.104;2022-09-02T10:49:08;20.19;48.31
70695;DHT22;58269;52.246;21.104;2022-09-02T10:51:21;20.26;48.17
70695;DHT22;58269;52.246;21.104;2022-09-02T10:56:15;20.40;48.01
70695;DHT22;58269;52.246;21.104;2022-09-02T10:58:20;20.50;47.90
70695;DHT22;58269;52.246;21.104;2022-09-02T11:00:21;20.60;47.77
70695;DHT22;58269;52.246;21.104;2022-09-02T11:02:29;20.68;47.70
70695;DHT22;58269;52.246;21.104;2022-09-02T11:04:42;20.83;47.52
70695;DHT22;58269;52.246;21.104;2022-09-02T11:06:41;20.93;47.29
70695;DHT22;58269;52.246;21.104;2022-09-02T11:08:52;21.09;47.01
70695;DHT22;58269;52.246;21.104;2022-09-02T11:13:25;21.97;46.63
70695;DHT22;58269;52.246;21.104;2022-09-02T11:15:46;22.54;46.34
70695;DHT22;58269;52.246;21.104;2022-09-02T11:17:58;23.09;43.84
70695;DHT22;58269;52.246;21.104;2022-09-02T11:20:10;23.41;44.18
70695;DHT22;58269;52.246;21.104;2022-09-02T11:22:32;23.54;43.66
70695;DHT22;58269;52.246;21.104;2022-09-02T11:26:41;23.85;43.89
70695;DHT22;58269;52.246;21.104;2022-09-02T11:33:20;24.04;42.42
70695;DHT22;58269;52.246;21.104;2022-09-02T11:35:23;23.98;42.88
70695;DHT22;58269;52.246;21.104;2022-09-02T11:37:42;23.98;42.69
70695;DHT22;58269;52.246;21.104;2022-09-02T11:39:57;24.05;42.38
70695;DHT22;58269;52.246;21.104;2022-09-02T11:48:59;24.12;41.14
70695;DHT22;58269;52.246;21.104;2022-09-02T11:51:00;23.99;41.28
70695;DHT22;58269;52.246;21.104;2022-09-02T11:55:23;23.80;40.86
70695;DHT22;58269;52.246;21.104;2022-09-02T11:57:24;23.71;40.27
70695;DHT22;58269;52.246;21.104;2022-09-02T12:01:53;23.53;40.76
70695;DHT22;58269;52.246;21.104;2022-09-02T12:06:16;23.49;40.98
70695;DHT22;58269;52.246;21.104;2022-09-02T12:21:14;23.05;40.22
70695;DHT22;58269;52.246;21.104;2022-09-02T12:25:57;23.33;39.76
70695;DHT22;58269;52.246;21.104;2022-09-02T12:28:26;23.46;39.44
70695;DHT22;58269;52.246;21.104;2022-09-02T12:33:10;23.77;39.54
70695;DHT22;58269;52.246;21.104;2022-09-02T12:37:56;23.98;39.56
70695;DHT22;58269;52.246;21.104;2022-09-02T12:39:57;23.99;39.48
70695;DHT22;58269;52.246;21.104;2022-09-02T12:44:30;23.90;39.44
70695;DHT22;58269;52.246;21.104;2022-09-02T12:46:51;23.84;39.55
70695;DHT22;58269;52.246;21.104;2022-09-02T12:49:08;23.77;39.47
70695;DHT22;58269;52.246;21.104;2022-09-02T12:51:07;23.70;39.45
70695;DHT22;58269;52.246;21.104;2022-09-02T12:53:28;23.60;39.13
70695;DHT22;58269;52.246;21.104;2022-09-02T12:55:30;23.43;39.20
70695;DHT22;58269;52.246;21.104;2022-09-02T12:57:39;23.25;39.09
70695;DHT22;58269;52.246;21.104;2022-09-02T12:59:41;23.12;38.99
70695;DHT22;58269;52.246;21.104;2022-09-02T13:04:27;22.79;39.42
70695;DHT22;58269;52.246;21.104;2022-09-02T13:31:28;22.47;39.56
70695;DHT22;58269;52.246;21.104;2022-09-02T13:33:29;22.57;39.53
70695;DHT22;58269;52.246;21.104;2022-09-02T13:35:31;22.62;39.59
70695;DHT22;58269;52.246;21.104;2022-09-02T13:37:35;22.68;39.56
70695;DHT22;58269;52.246;21.104;2022-09-02T13:39:36;22.65;39.49
70695;DHT22;58269;52.246;21.104;2022-09-02T13:41:38;22.64;39.44
70695;DHT22;58269;52.246;21.104;2022-09-02T13:43:39;22.59;39.45
70695;DHT22;58269;52.246;21.104;2022-09-02T13:45:40;22.59;39.46
70695;DHT22;58269;52.246;21.104;2022-09-02T13:47:43;22.52;39.43
70695;DHT22;58269;52.246;21.104;2022-09-02T13:49:47;22.42;39.48
70695;DHT22;58269;52.246;21.104;2022-09-02T13:51:50;22.35;39.44
70695;DHT22;58269;52.246;21.104;2022-09-02T13:53:52;22.24;39.49
70695;DHT22;58269;52.246;21.104;2022-09-02T13:55:54;22.14;39.51
70695;DHT22;58269;52.246;21.104;2022-09-02T13:58:04;22.01;39.59
70695;DHT22;58269;52.246;21.104;2022-09-02T14:00:07;21.93;39.71
70695;DHT22;58269;52.246;21.104;2022-09-02T14:02:34;21.81;39.70
70695;DHT22;58269;52.246;21.104;2022-09-02T14:04:36;21.72;39.80
70695;DHT22;58269;52.246;21.104;2022-09-02T14:06:39;21.65;39.91
70695;DHT22;58269;52.246;21.104;2022-09-02T14:08:40;21.56;40.06
70695;DHT22;58269;52.246;21.104;2022-09-02T14:10:41;21.59;40.12
70695;DHT22;58269;52.246;21.104;2022-09-02T14:12:43;21.80;40.25
70695;DHT22;58269;52.246;21.104;2022-09-02T14:14:45;22.10;40.30
70695;DHT22;58269;52.246;21.104;2022-09-02T14:16:46;22.52;40.18
70695;DHT22;58269;52.246;21.104;2022-09-02T14:19:26;23.15;40.01
70695;DHT22;58269;52.246;21.104;2022-09-02T14:21:16;23.92;39.72
70695;DHT22;58269;52.246;21.104;2022-09-02T14:23:18;24.39;39.42
70695;DHT22;58269;52.246;21.104;2022-09-02T14:25:20;24.58;39.26
70695;DHT22;58269;52.246;21.104;2022-09-02T14:27:22;24.66;39.19
70695;DHT22;58269;52.246;21.104;2022-09-02T14:29:24;24.60;38.98
70695;DHT22;58269;52.246;21.104;2022-09-02T14:31:27;24.49;38.93
70695;DHT22;58269;52.246;21.104;2022-09-02T14:35:41;24.13;38.70
70695;DHT22;58269;52.246;21.104;2022-09-02T14:37:53;23.94;38.57